createdAt,value
2016-12-25T00:00:55.862Z,496
2016-12-25T00:01:56.002Z,480
2016-12-25T00:02:56.086Z,480
2016-12-25T00:03:56.199Z,479
2016-12-25T00:04:56.290Z,495
2016-12-25T00:05:56.387Z,497
2016-12-25T00:06:56.459Z,500
2016-12-25T00:07:56.705Z,513
2016-12-25T00:08:56.800Z,503
2016-12-25T00:09:56.885Z,505
2016-12-25T00:10:57.014Z,505
2016-12-25T00:11:57.151Z,510
2016-12-25T00:12:57.295Z,504
2016-12-25T00:13:57.431Z,505
2016-12-25T00:14:57.582Z,508
2016-12-25T00:15:57.739Z,505
2016-12-25T00:16:57.851Z,502
2016-12-25T00:17:58.016Z,506
2016-12-25T00:18:58.230Z,509
2016-12-25T00:19:58.320Z,513
2016-12-25T00:20:58.424Z,509
2016-12-25T00:21:58.511Z,504
2016-12-25T00:22:58.648Z,505
2016-12-25T00:23:58.746Z,508
2016-12-25T00:24:58.852Z,499
2016-12-25T00:25:59.100Z,501
2016-12-25T00:26:59.205Z,498
2016-12-25T00:27:59.361Z,510
2016-12-25T00:28:59.450Z,505
2016-12-25T00:29:59.547Z,503
2016-12-25T00:30:59.670Z,499
2016-12-25T00:31:59.796Z,507
2016-12-25T00:32:59.898Z,506
2016-12-25T00:34:00.099Z,495
2016-12-25T00:35:00.179Z,495
2016-12-25T00:36:00.289Z,487
2016-12-25T00:37:00.405Z,497
2016-12-25T00:38:00.524Z,483
2016-12-25T00:39:00.646Z,488
2016-12-25T00:40:00.729Z,481
2016-12-25T00:41:00.843Z,484
2016-12-25T00:42:00.966Z,667
2016-12-25T00:43:01.112Z,669
2016-12-25T00:44:01.233Z,672
2016-12-25T00:45:01.328Z,679
2016-12-25T00:46:01.398Z,783
2016-12-25T00:47:01.525Z,802
2016-12-25T00:48:01.654Z,799
2016-12-25T00:49:01.741Z,795
2016-12-25T00:50:01.826Z,796
2016-12-25T00:51:01.908Z,788
2016-12-25T00:52:02.035Z,776
2016-12-25T00:53:02.126Z,776
2016-12-25T00:54:02.280Z,761
2016-12-25T00:55:02.414Z,741
2016-12-25T00:56:02.497Z,760
2016-12-25T00:57:02.637Z,744
2016-12-25T00:58:02.748Z,767
2016-12-25T00:59:02.831Z,765
2016-12-25T01:00:02.946Z,756
2016-12-25T01:01:03.043Z,764
2016-12-25T01:02:03.180Z,769
2016-12-25T01:03:03.307Z,769
2016-12-25T01:04:03.478Z,765
2016-12-25T01:05:03.552Z,761
2016-12-25T01:06:03.727Z,770
2016-12-25T01:07:03.893Z,764
2016-12-25T01:08:04.047Z,764
2016-12-25T01:09:04.176Z,760
2016-12-25T01:10:04.303Z,776
2016-12-25T01:11:04.435Z,771
2016-12-25T01:12:04.564Z,776
2016-12-25T01:13:04.657Z,758
2016-12-25T01:14:04.773Z,748
2016-12-25T01:15:04.844Z,755
2016-12-25T01:16:04.996Z,746
2016-12-25T01:17:05.074Z,771
2016-12-25T01:18:05.303Z,765
2016-12-25T01:19:05.412Z,758
2016-12-25T01:20:05.544Z,754
2016-12-25T01:21:05.617Z,762
2016-12-25T01:22:05.831Z,759
2016-12-25T01:23:06.038Z,756
2016-12-25T01:24:06.170Z,754
2016-12-25T01:25:06.299Z,763
2016-12-25T01:26:06.485Z,746
2016-12-25T01:27:06.594Z,757
2016-12-25T01:28:06.715Z,762
2016-12-25T01:29:06.826Z,769
2016-12-25T01:30:06.900Z,771
2016-12-25T01:31:07.019Z,760
2016-12-25T01:32:07.181Z,744
2016-12-25T01:33:07.343Z,770
2016-12-25T01:34:07.441Z,759
2016-12-25T01:35:07.548Z,755
2016-12-25T01:36:07.656Z,758
2016-12-25T01:37:07.777Z,754
2016-12-25T01:38:07.915Z,750
2016-12-25T01:39:08.012Z,743
2016-12-25T01:40:08.127Z,740
2016-12-25T01:41:08.194Z,720
2016-12-25T01:42:08.302Z,733
2016-12-25T01:43:08.384Z,727
2016-12-25T01:44:08.514Z,723
2016-12-25T01:45:08.665Z,698
2016-12-25T01:46:08.868Z,668
2016-12-25T01:47:08.955Z,650
2016-12-25T01:48:09.114Z,646
2016-12-25T01:49:09.214Z,665
2016-12-25T01:50:09.309Z,661
2016-12-25T01:51:09.396Z,659
2016-12-25T01:52:09.560Z,653
2016-12-25T01:53:09.731Z,647
2016-12-25T01:54:09.795Z,645
2016-12-25T01:55:09.936Z,666
2016-12-25T01:56:10.103Z,672
2016-12-25T01:57:10.189Z,671
2016-12-25T01:58:10.433Z,711
2016-12-25T01:59:10.569Z,708
2016-12-25T02:00:10.643Z,697
2016-12-25T02:01:10.763Z,719
2016-12-25T02:02:10.850Z,687
2016-12-25T02:03:10.967Z,657
2016-12-25T02:04:11.098Z,663
2016-12-25T02:05:11.272Z,672
2016-12-25T02:06:11.454Z,668
2016-12-25T02:07:11.591Z,672
2016-12-25T02:08:11.660Z,663
2016-12-25T02:09:11.817Z,670
2016-12-25T02:10:11.924Z,664
2016-12-25T02:11:12.025Z,675
2016-12-25T02:12:12.156Z,685
2016-12-25T02:13:12.326Z,684
2016-12-25T02:14:12.471Z,682
2016-12-25T02:15:12.596Z,676
2016-12-25T02:16:12.757Z,676
2016-12-25T02:17:12.831Z,668
2016-12-25T02:18:12.919Z,665
2016-12-25T02:19:13.019Z,647
2016-12-25T02:20:13.102Z,663
2016-12-25T02:21:13.197Z,652
2016-12-25T02:22:13.334Z,643
2016-12-25T02:23:13.421Z,638
2016-12-25T02:24:13.548Z,645
2016-12-25T02:25:13.680Z,650
2016-12-25T02:26:13.774Z,649
2016-12-25T02:27:14.048Z,644
2016-12-25T02:28:14.133Z,643
2016-12-25T02:29:14.316Z,645
2016-12-25T02:30:14.455Z,648
2016-12-25T02:31:14.535Z,638
2016-12-25T02:32:14.603Z,619
2016-12-25T02:33:14.713Z,611
2016-12-25T02:34:14.879Z,602
2016-12-25T02:35:14.988Z,588
2016-12-25T02:36:15.066Z,577
2016-12-25T02:37:15.250Z,619
2016-12-25T02:38:15.373Z,623
2016-12-25T02:39:15.516Z,620
2016-12-25T02:40:15.629Z,625
2016-12-25T02:41:15.745Z,618
2016-12-25T02:42:15.862Z,611
2016-12-25T02:43:15.931Z,611
2016-12-25T02:44:16.037Z,610
2016-12-25T02:45:16.156Z,617
2016-12-25T02:46:16.242Z,605
2016-12-25T02:47:16.320Z,606
2016-12-25T02:48:16.395Z,607
2016-12-25T02:49:16.501Z,596
2016-12-25T02:50:16.660Z,607
2016-12-25T02:51:16.834Z,608
2016-12-25T02:52:16.981Z,599
2016-12-25T02:53:17.087Z,594
2016-12-25T02:54:17.199Z,578
2016-12-25T02:55:17.320Z,577
2016-12-25T02:56:17.427Z,538
2016-12-25T02:57:17.563Z,525
2016-12-25T02:58:17.657Z,527
2016-12-25T02:59:17.745Z,529
2016-12-25T03:00:17.880Z,523
2016-12-25T03:01:17.981Z,523
2016-12-25T03:02:18.051Z,522
2016-12-25T03:03:18.162Z,517
2016-12-25T03:04:18.331Z,515
2016-12-25T03:05:18.464Z,501
2016-12-25T03:06:18.608Z,489
2016-12-25T03:07:18.732Z,489
2016-12-25T03:08:18.841Z,522
2016-12-25T03:09:18.986Z,521
2016-12-25T03:10:19.126Z,539
2016-12-25T03:11:19.271Z,531
2016-12-25T03:12:19.374Z,529
2016-12-25T03:13:19.462Z,525
2016-12-25T03:14:19.576Z,575
2016-12-25T03:15:19.653Z,519
2016-12-25T03:16:19.773Z,541
2016-12-25T03:17:19.864Z,543
2016-12-25T03:18:19.989Z,542
2016-12-25T03:19:20.086Z,542
2016-12-25T03:20:20.164Z,536
2016-12-25T03:21:20.262Z,536
2016-12-25T03:22:20.356Z,568
2016-12-25T03:23:22.191Z,533
2016-12-25T03:24:21.327Z,557
2016-12-25T03:25:21.487Z,569
2016-12-25T03:26:21.578Z,564
2016-12-25T03:27:21.666Z,564
2016-12-25T03:28:21.783Z,563
2016-12-25T03:29:21.912Z,558
2016-12-25T03:30:22.036Z,557
2016-12-25T03:31:22.120Z,559
2016-12-25T03:32:22.182Z,562
2016-12-25T03:33:22.303Z,561
2016-12-25T03:34:22.394Z,548
2016-12-25T03:35:22.529Z,554
2016-12-25T03:36:22.664Z,561
2016-12-25T03:37:22.761Z,560
2016-12-25T03:38:22.909Z,563
2016-12-25T03:39:22.994Z,561
2016-12-25T03:40:23.155Z,560
2016-12-25T03:41:23.266Z,548
2016-12-25T03:42:23.380Z,558
2016-12-25T03:43:23.524Z,575
2016-12-25T03:44:23.639Z,589
2016-12-25T03:45:23.744Z,580
2016-12-25T03:46:23.866Z,582
2016-12-25T03:47:23.959Z,623
2016-12-25T03:48:24.161Z,642
2016-12-25T03:49:24.267Z,648
2016-12-25T03:50:24.391Z,644
2016-12-25T03:51:24.561Z,649
2016-12-25T03:52:24.671Z,643
2016-12-25T03:53:24.804Z,644
2016-12-25T03:54:25.080Z,640
2016-12-25T03:55:25.176Z,640
2016-12-25T03:56:25.270Z,633
2016-12-25T03:57:25.350Z,639
2016-12-25T03:58:25.466Z,641
2016-12-25T03:59:25.561Z,638
2016-12-25T04:00:25.680Z,635
2016-12-25T04:01:25.762Z,636
2016-12-25T04:02:26.729Z,638
2016-12-25T04:03:26.874Z,633
2016-12-25T04:04:27.022Z,627
2016-12-25T04:05:27.142Z,631
2016-12-25T04:06:27.250Z,632
2016-12-25T04:07:27.368Z,632
2016-12-25T04:08:27.517Z,632
2016-12-25T04:09:27.618Z,629
2016-12-25T04:10:27.761Z,634
2016-12-25T04:11:27.844Z,632
2016-12-25T04:12:27.985Z,631
2016-12-25T04:13:28.107Z,633
2016-12-25T04:14:28.193Z,625
2016-12-25T04:15:28.331Z,633
2016-12-25T04:16:28.448Z,631
2016-12-25T04:17:28.542Z,629
2016-12-25T04:18:28.652Z,625
2016-12-25T04:19:28.738Z,631
2016-12-25T04:20:28.877Z,632
2016-12-25T04:21:28.961Z,632
2016-12-25T04:22:29.042Z,623
2016-12-25T04:23:29.165Z,624
2016-12-25T04:24:29.320Z,627
2016-12-25T04:25:29.462Z,614
2016-12-25T04:26:29.623Z,619
2016-12-25T04:27:29.708Z,560
2016-12-25T04:28:29.795Z,645
2016-12-25T04:29:29.933Z,611
2016-12-25T04:30:30.135Z,649
2016-12-25T04:31:30.308Z,645
2016-12-25T04:32:30.388Z,646
2016-12-25T04:33:30.492Z,645
2016-12-25T04:34:30.618Z,614
2016-12-25T04:35:30.712Z,641
2016-12-25T04:36:30.857Z,636
2016-12-25T04:37:30.944Z,635
2016-12-25T04:38:31.051Z,615
2016-12-25T04:39:31.143Z,620
2016-12-25T04:40:31.274Z,623
2016-12-25T04:41:31.417Z,607
2016-12-25T04:42:31.507Z,626
2016-12-25T04:43:31.606Z,619
2016-12-25T04:44:31.681Z,613
2016-12-25T04:45:31.825Z,595
2016-12-25T04:46:31.924Z,609
2016-12-25T04:47:31.992Z,590
2016-12-25T04:48:32.122Z,609
2016-12-25T04:49:32.247Z,647
2016-12-25T04:50:32.375Z,643
2016-12-25T04:51:32.521Z,644
2016-12-25T04:52:32.619Z,646
2016-12-25T04:53:32.701Z,644
2016-12-25T04:54:32.792Z,643
2016-12-25T04:55:32.925Z,645
2016-12-25T04:56:33.059Z,631
2016-12-25T04:57:33.163Z,641
2016-12-25T04:58:33.279Z,630
2016-12-25T04:59:33.416Z,576
2016-12-25T05:00:33.518Z,619
2016-12-25T05:01:33.588Z,635
2016-12-25T05:02:33.678Z,621
2016-12-25T05:03:33.807Z,646
2016-12-25T05:04:33.934Z,608
2016-12-25T05:05:34.069Z,616
2016-12-25T05:06:34.308Z,607
2016-12-25T05:07:34.409Z,619
2016-12-25T05:08:34.533Z,639
2016-12-25T05:09:34.658Z,642
2016-12-25T05:10:34.770Z,638
2016-12-25T05:11:34.884Z,637
2016-12-25T05:12:35.021Z,638
2016-12-25T05:13:35.172Z,633
2016-12-25T05:14:35.286Z,634
2016-12-25T05:15:35.381Z,640
2016-12-25T05:16:35.516Z,616
2016-12-25T05:17:35.631Z,616
2016-12-25T05:18:35.792Z,624
2016-12-25T05:19:35.884Z,643
2016-12-25T05:20:35.999Z,650
2016-12-25T05:21:36.100Z,637
2016-12-25T05:22:36.187Z,649
2016-12-25T05:23:36.329Z,645
2016-12-25T05:24:36.476Z,631
2016-12-25T05:25:36.635Z,605
2016-12-25T05:26:36.724Z,636
2016-12-25T05:27:36.820Z,620
2016-12-25T05:28:36.978Z,621
2016-12-25T05:29:37.066Z,629
2016-12-25T05:30:37.219Z,628
2016-12-25T05:31:37.304Z,628
2016-12-25T05:32:37.392Z,631
2016-12-25T05:33:37.485Z,636
2016-12-25T05:34:37.648Z,626
2016-12-25T05:35:37.770Z,626
2016-12-25T05:36:37.942Z,634
2016-12-25T05:37:38.006Z,628
2016-12-25T05:38:38.116Z,627
2016-12-25T05:39:38.200Z,629
2016-12-25T05:40:38.333Z,622
2016-12-25T05:41:38.469Z,634
2016-12-25T05:42:38.571Z,642
2016-12-25T05:43:38.749Z,648
2016-12-25T05:44:38.868Z,646
2016-12-25T05:45:39.015Z,668
2016-12-25T05:46:39.160Z,669
2016-12-25T05:47:39.301Z,667
2016-12-25T05:48:39.452Z,667
2016-12-25T05:49:39.560Z,666
2016-12-25T05:50:39.730Z,674
2016-12-25T05:51:39.796Z,672
2016-12-25T05:52:39.881Z,662
2016-12-25T05:53:40.008Z,661
2016-12-25T05:54:40.197Z,668
2016-12-25T05:55:40.326Z,643
2016-12-25T05:56:40.433Z,648
2016-12-25T05:57:40.535Z,625
2016-12-25T05:58:40.648Z,625
2016-12-25T05:59:40.810Z,648
2016-12-25T06:00:40.906Z,645
2016-12-25T06:01:41.041Z,624
2016-12-25T06:02:41.154Z,624
2016-12-25T06:03:41.300Z,626
2016-12-25T06:04:41.449Z,625
2016-12-25T06:05:41.604Z,615
2016-12-25T06:06:41.765Z,607
2016-12-25T06:07:41.941Z,580
2016-12-25T06:08:42.025Z,635
2016-12-25T06:09:42.129Z,641
2016-12-25T06:10:42.241Z,639
2016-12-25T06:11:42.352Z,622
2016-12-25T06:12:42.495Z,627
2016-12-25T06:13:42.602Z,620
2016-12-25T06:14:42.710Z,614
2016-12-25T06:15:42.781Z,640
2016-12-25T06:16:42.854Z,638
2016-12-25T06:17:43.021Z,636
2016-12-25T06:18:43.140Z,632
2016-12-25T06:19:43.251Z,625
2016-12-25T06:20:43.346Z,632
2016-12-25T06:21:43.500Z,628
2016-12-25T06:22:43.655Z,626
2016-12-25T06:23:43.764Z,642
2016-12-25T06:24:44.025Z,617
2016-12-25T06:25:44.139Z,622
2016-12-25T06:26:44.251Z,596
2016-12-25T06:27:44.385Z,628
2016-12-25T06:28:44.504Z,628
2016-12-25T06:29:44.630Z,603
2016-12-25T06:30:44.798Z,584
2016-12-25T06:31:44.955Z,631
2016-12-25T06:32:45.106Z,624
2016-12-25T06:33:45.241Z,619
2016-12-25T06:34:45.329Z,614
2016-12-25T06:35:45.472Z,624
2016-12-25T06:36:45.579Z,610
2016-12-25T06:37:45.740Z,620
2016-12-25T06:38:45.842Z,614
2016-12-25T06:39:45.928Z,613
2016-12-25T06:40:46.033Z,628
2016-12-25T06:41:47.248Z,615
2016-12-25T06:42:46.397Z,645
2016-12-25T06:43:46.518Z,621
2016-12-25T06:44:46.671Z,640
2016-12-25T06:45:46.805Z,611
2016-12-25T06:46:46.881Z,627
2016-12-25T06:47:47.015Z,629
2016-12-25T06:48:47.119Z,597
2016-12-25T06:49:47.243Z,602
2016-12-25T06:50:48.758Z,595
2016-12-25T06:51:48.436Z,607
2016-12-25T06:52:48.587Z,613
2016-12-25T06:53:48.719Z,619
2016-12-25T06:54:49.751Z,614
2016-12-25T06:55:50.250Z,617
2016-12-25T06:56:49.024Z,584
2016-12-25T06:57:49.758Z,623
2016-12-25T06:58:49.251Z,619
2016-12-25T06:59:49.336Z,604
2016-12-25T07:00:49.436Z,599
2016-12-25T07:01:49.552Z,600
2016-12-25T07:02:49.633Z,605
2016-12-25T07:03:49.730Z,605
2016-12-25T07:04:49.826Z,591
2016-12-25T07:05:49.966Z,584
2016-12-25T07:06:50.064Z,596
2016-12-25T07:07:50.174Z,599
2016-12-25T07:08:50.775Z,610
2016-12-25T07:09:50.915Z,600
2016-12-25T07:10:51.057Z,610
2016-12-25T07:11:51.197Z,618
2016-12-25T07:12:51.299Z,622
2016-12-25T07:13:51.417Z,614
2016-12-25T07:14:52.380Z,604
2016-12-25T07:15:52.469Z,599
2016-12-25T07:16:52.563Z,609
2016-12-25T07:17:52.631Z,613
2016-12-25T07:18:52.754Z,605
2016-12-25T07:19:52.846Z,596
2016-12-25T07:20:52.967Z,622
2016-12-25T07:21:53.118Z,610
2016-12-25T07:22:53.227Z,594
2016-12-25T07:23:53.401Z,581
2016-12-25T07:24:53.546Z,595
2016-12-25T07:25:53.686Z,607
2016-12-25T07:26:53.743Z,605
2016-12-25T07:27:53.848Z,604
2016-12-25T07:28:53.971Z,569
2016-12-25T07:29:54.093Z,607
2016-12-25T07:30:54.203Z,596
2016-12-25T07:31:54.313Z,600
2016-12-25T07:32:54.407Z,615
2016-12-25T07:33:54.575Z,596
2016-12-25T07:34:54.698Z,588
2016-12-25T07:35:54.813Z,558
2016-12-25T07:36:54.947Z,586
2016-12-25T07:37:55.068Z,577
2016-12-25T07:38:55.204Z,593
2016-12-25T07:39:55.338Z,583
2016-12-25T07:40:55.468Z,592
2016-12-25T07:41:55.574Z,597
2016-12-25T07:42:55.653Z,589
2016-12-25T07:43:55.791Z,601
2016-12-25T07:44:55.911Z,589
2016-12-25T07:45:56.031Z,590
2016-12-25T07:46:56.104Z,573
2016-12-25T07:47:56.217Z,591
2016-12-25T07:48:56.342Z,605
2016-12-25T07:49:56.480Z,607
2016-12-25T07:50:56.553Z,590
2016-12-25T07:51:56.685Z,595
2016-12-25T07:52:56.793Z,572
2016-12-25T07:53:56.874Z,579
2016-12-25T07:54:57.033Z,572
2016-12-25T07:55:57.155Z,581
2016-12-25T07:56:57.252Z,589
2016-12-25T07:57:57.398Z,582
2016-12-25T07:58:57.521Z,564
2016-12-25T07:59:57.629Z,570
2016-12-25T08:00:57.751Z,559
2016-12-25T08:01:57.841Z,585
2016-12-25T08:02:57.959Z,558
2016-12-25T08:03:58.066Z,567
2016-12-25T08:04:58.215Z,575
2016-12-25T08:05:58.349Z,563
2016-12-25T08:06:58.524Z,590
2016-12-25T08:07:58.712Z,599
2016-12-25T08:08:58.798Z,595
2016-12-25T08:09:58.979Z,575
2016-12-25T08:10:59.088Z,597
2016-12-25T08:11:59.176Z,581
2016-12-25T08:12:59.277Z,573
2016-12-25T08:13:59.397Z,596
2016-12-25T08:15:00.435Z,590
2016-12-25T08:16:00.526Z,594
2016-12-25T08:17:00.585Z,578
2016-12-25T08:18:00.740Z,591
2016-12-25T08:19:00.866Z,574
2016-12-25T08:20:00.993Z,576
2016-12-25T08:21:01.156Z,587
2016-12-25T08:22:01.255Z,580
2016-12-25T08:23:01.387Z,581
2016-12-25T08:24:01.599Z,580
2016-12-25T08:25:01.761Z,581
2016-12-25T08:26:01.872Z,583
2016-12-25T08:27:01.989Z,573
2016-12-25T08:28:02.097Z,565
2016-12-25T08:29:02.176Z,568
2016-12-25T08:30:02.258Z,612
2016-12-25T08:31:02.511Z,605
2016-12-25T08:32:02.655Z,612
2016-12-25T08:33:02.781Z,614
2016-12-25T08:34:02.889Z,576
2016-12-25T08:35:03.059Z,597
2016-12-25T08:36:03.168Z,592
2016-12-25T08:37:03.307Z,592
2016-12-25T08:38:03.514Z,595
2016-12-25T08:39:03.664Z,589
2016-12-25T08:40:03.817Z,609
2016-12-25T08:41:03.937Z,612
2016-12-25T08:42:04.145Z,608
2016-12-25T08:43:04.330Z,602
2016-12-25T08:44:04.575Z,604
2016-12-25T08:45:04.596Z,614
2016-12-25T08:46:04.697Z,613
2016-12-25T08:47:04.863Z,606
2016-12-25T08:48:04.984Z,587
2016-12-25T08:49:05.117Z,562
2016-12-25T08:50:05.295Z,564
2016-12-25T08:51:05.431Z,567
2016-12-25T08:52:05.522Z,552
2016-12-25T08:53:05.703Z,556
2016-12-25T08:54:05.801Z,557
2016-12-25T08:55:05.957Z,555
2016-12-25T08:56:06.117Z,556
2016-12-25T08:57:06.196Z,557
2016-12-25T08:58:06.372Z,558
2016-12-25T08:59:06.462Z,559
2016-12-25T09:00:06.541Z,559
2016-12-25T09:01:06.651Z,561
2016-12-25T09:02:06.814Z,562
2016-12-25T09:03:06.942Z,561
2016-12-25T09:04:07.070Z,563
2016-12-25T09:05:07.224Z,563
2016-12-25T09:06:07.349Z,564
2016-12-25T09:07:07.502Z,565
2016-12-25T09:08:07.625Z,566
2016-12-25T09:09:07.756Z,565
2016-12-25T09:10:07.933Z,566
2016-12-25T09:11:08.023Z,567
2016-12-25T09:12:08.178Z,567
2016-12-25T09:13:08.293Z,570
2016-12-25T09:14:08.407Z,571
2016-12-25T09:15:08.542Z,571
2016-12-25T09:16:08.730Z,571
2016-12-25T09:17:08.879Z,571
2016-12-25T09:18:08.941Z,574
2016-12-25T09:19:09.086Z,576
2016-12-25T09:20:09.222Z,577
2016-12-25T09:21:09.437Z,579
2016-12-25T09:22:09.584Z,580
2016-12-25T09:23:09.679Z,582
2016-12-25T09:24:09.810Z,584
2016-12-25T09:25:09.914Z,586
2016-12-25T09:26:10.082Z,588
2016-12-25T09:27:10.175Z,589
2016-12-25T09:28:10.275Z,590
2016-12-25T09:29:10.412Z,589
2016-12-25T09:30:10.549Z,590
2016-12-25T09:31:10.730Z,590
2016-12-25T09:32:10.792Z,588
2016-12-25T09:33:10.930Z,589
2016-12-25T09:34:11.086Z,588
2016-12-25T09:35:11.292Z,590
2016-12-25T09:36:11.482Z,588
2016-12-25T09:37:11.566Z,587
2016-12-25T09:38:11.677Z,583
2016-12-25T09:39:11.749Z,592
2016-12-25T09:40:11.927Z,578
2016-12-25T09:41:12.216Z,586
2016-12-25T09:42:12.303Z,581
2016-12-25T09:43:12.396Z,577
2016-12-25T09:44:12.521Z,578
2016-12-25T09:45:12.620Z,581
2016-12-25T09:46:12.730Z,587
2016-12-25T09:47:12.829Z,590
2016-12-25T09:48:12.956Z,588
2016-12-25T09:49:13.038Z,586
2016-12-25T09:50:13.174Z,589
2016-12-25T09:51:13.270Z,571
2016-12-25T09:52:13.401Z,581
2016-12-25T09:53:13.562Z,580
2016-12-25T09:54:13.727Z,573
2016-12-25T09:55:13.848Z,585
2016-12-25T09:56:13.971Z,589
2016-12-25T09:57:14.147Z,588
2016-12-25T09:58:14.248Z,588
2016-12-25T09:59:14.392Z,588
2016-12-25T10:00:14.512Z,587
2016-12-25T10:01:14.701Z,586
2016-12-25T10:02:14.801Z,584
2016-12-25T10:03:14.889Z,583
2016-12-25T10:04:14.975Z,583
2016-12-25T10:05:15.199Z,582
2016-12-25T10:06:15.295Z,581
2016-12-25T10:07:15.409Z,581
2016-12-25T10:08:15.486Z,582
2016-12-25T10:09:15.598Z,584
2016-12-25T10:10:15.710Z,583
2016-12-25T10:11:15.865Z,583
2016-12-25T10:12:15.997Z,583
2016-12-25T10:13:16.088Z,583
2016-12-25T10:14:16.185Z,583
2016-12-25T10:15:16.377Z,583
2016-12-25T10:16:16.443Z,583
2016-12-25T10:17:16.530Z,583
2016-12-25T10:18:16.604Z,582
2016-12-25T10:19:16.824Z,581
2016-12-25T10:20:16.945Z,580
2016-12-25T10:21:17.050Z,578
2016-12-25T10:22:17.175Z,575
2016-12-25T10:23:17.267Z,577
2016-12-25T10:24:17.353Z,577
2016-12-25T10:25:17.471Z,576
2016-12-25T10:26:17.566Z,577
2016-12-25T10:27:17.646Z,576
2016-12-25T10:28:17.743Z,563
2016-12-25T10:29:17.840Z,574
2016-12-25T10:30:17.970Z,573
2016-12-25T10:31:18.045Z,572
2016-12-25T10:32:18.119Z,572
2016-12-25T10:33:18.211Z,571
2016-12-25T10:34:18.304Z,570
2016-12-25T10:35:18.410Z,569
2016-12-25T10:36:18.514Z,568
2016-12-25T10:37:18.612Z,542
2016-12-25T10:38:18.741Z,566
2016-12-25T10:39:18.917Z,566
2016-12-25T10:40:19.050Z,565
2016-12-25T10:41:19.175Z,565
2016-12-25T10:42:19.300Z,565
2016-12-25T10:43:19.407Z,566
2016-12-25T10:44:19.583Z,565
2016-12-25T10:45:19.645Z,565
2016-12-25T10:46:19.724Z,564
2016-12-25T10:47:19.799Z,564
2016-12-25T10:48:19.917Z,563
2016-12-25T10:49:20.015Z,561
2016-12-25T10:50:20.167Z,562
2016-12-25T10:51:20.819Z,561
2016-12-25T10:52:20.421Z,559
2016-12-25T10:53:20.590Z,563
2016-12-25T10:54:20.722Z,562
2016-12-25T10:55:20.853Z,564
2016-12-25T10:56:21.055Z,546
2016-12-25T10:57:21.173Z,564
2016-12-25T10:58:21.316Z,565
2016-12-25T10:59:21.509Z,564
2016-12-25T11:00:21.636Z,564
2016-12-25T11:01:21.739Z,570
2016-12-25T11:02:21.814Z,570
2016-12-25T11:03:21.981Z,571
2016-12-25T11:04:22.101Z,572
2016-12-25T11:05:22.211Z,572
2016-12-25T11:06:22.302Z,570
2016-12-25T11:07:22.446Z,564
2016-12-25T11:08:22.609Z,549
2016-12-25T11:09:22.700Z,530
2016-12-25T11:10:22.822Z,515
2016-12-25T11:11:22.983Z,504
2016-12-25T11:12:23.129Z,553
2016-12-25T11:13:23.270Z,553
2016-12-25T11:14:23.399Z,552
2016-12-25T11:15:23.478Z,548
2016-12-25T11:16:23.589Z,545
2016-12-25T11:17:23.664Z,541
2016-12-25T11:18:23.822Z,526
2016-12-25T11:19:23.973Z,463
2016-12-25T11:20:24.120Z,484
2016-12-25T11:21:24.240Z,405
2016-12-25T11:22:24.371Z,397
2016-12-25T11:23:24.563Z,383
2016-12-25T11:24:24.700Z,309
2016-12-25T11:25:24.932Z,312
2016-12-25T11:26:25.100Z,307
2016-12-25T11:27:25.211Z,307
2016-12-25T11:28:25.326Z,292
2016-12-25T11:29:25.487Z,291
2016-12-25T11:30:25.596Z,291
2016-12-25T11:31:25.762Z,291
2016-12-25T11:32:25.865Z,291
2016-12-25T11:33:26.000Z,291
2016-12-25T11:34:26.130Z,291
2016-12-25T11:35:26.283Z,291
2016-12-25T11:36:27.327Z,291
2016-12-25T11:37:26.731Z,290
2016-12-25T11:38:26.866Z,290
2016-12-25T11:39:27.833Z,290
2016-12-25T11:40:27.045Z,290
2016-12-25T11:41:27.167Z,290
2016-12-25T11:42:27.266Z,290
2016-12-25T11:43:27.417Z,290
2016-12-25T11:44:27.574Z,290
2016-12-25T11:45:27.695Z,291
2016-12-25T11:46:27.854Z,290
2016-12-25T11:47:27.931Z,290
2016-12-25T11:48:28.060Z,290
2016-12-25T11:49:28.234Z,290
2016-12-25T11:50:28.340Z,290
2016-12-25T11:51:28.569Z,290
2016-12-25T11:52:28.681Z,290
2016-12-25T11:53:28.874Z,290
2016-12-25T11:54:29.048Z,290
2016-12-25T11:55:29.195Z,290
2016-12-25T11:56:29.374Z,290
2016-12-25T11:57:29.463Z,290
2016-12-25T11:58:29.636Z,290
2016-12-25T11:59:29.818Z,290
2016-12-25T12:00:29.903Z,289
2016-12-25T12:01:30.049Z,290
2016-12-25T12:02:30.115Z,290
2016-12-25T12:03:30.324Z,290
2016-12-25T12:04:30.467Z,290
2016-12-25T12:05:30.627Z,290
2016-12-25T12:06:30.806Z,290
2016-12-25T12:07:30.879Z,290
2016-12-25T12:08:30.995Z,290
2016-12-25T12:09:31.113Z,290
2016-12-25T12:10:31.246Z,290
2016-12-25T12:11:31.348Z,290
2016-12-25T12:12:31.445Z,290
2016-12-25T12:13:31.594Z,290
2016-12-25T12:14:31.738Z,290
2016-12-25T12:15:31.847Z,291
2016-12-25T12:16:31.983Z,291
2016-12-25T12:17:32.049Z,290
2016-12-25T12:18:32.190Z,290
2016-12-25T12:19:32.320Z,290
2016-12-25T12:20:32.470Z,290
2016-12-25T12:21:32.595Z,290
2016-12-25T12:22:32.681Z,290
2016-12-25T12:23:32.835Z,290
2016-12-25T12:24:32.966Z,290
2016-12-25T12:25:33.083Z,290
2016-12-25T12:26:33.256Z,290
2016-12-25T12:27:33.332Z,290
2016-12-25T12:28:33.515Z,290
2016-12-25T12:29:33.657Z,290
2016-12-25T12:30:33.921Z,290
2016-12-25T12:31:34.018Z,290
2016-12-25T12:32:34.109Z,290
2016-12-25T12:33:34.278Z,290
2016-12-25T12:34:34.379Z,289
2016-12-25T12:35:34.510Z,290
2016-12-25T12:36:34.682Z,290
2016-12-25T12:37:34.877Z,290
2016-12-25T12:38:35.022Z,290
2016-12-25T12:39:35.125Z,290
2016-12-25T12:40:35.285Z,290
2016-12-25T12:41:35.373Z,290
2016-12-25T12:42:35.473Z,290
2016-12-25T12:43:35.566Z,290
2016-12-25T12:44:35.666Z,290
2016-12-25T12:45:35.806Z,290
2016-12-25T12:46:35.942Z,290
2016-12-25T12:47:36.021Z,290
2016-12-25T12:48:36.113Z,290
2016-12-25T12:49:36.256Z,290
2016-12-25T12:50:36.363Z,290
2016-12-25T12:51:36.521Z,290
2016-12-25T12:52:36.645Z,290
2016-12-25T12:53:36.827Z,290
2016-12-25T12:54:36.932Z,290
2016-12-25T12:55:37.038Z,290
2016-12-25T12:56:37.125Z,290
2016-12-25T12:57:37.274Z,290
2016-12-25T12:58:37.385Z,290
2016-12-25T12:59:37.501Z,290
2016-12-25T13:00:37.603Z,290
2016-12-25T13:01:37.740Z,290
2016-12-25T13:02:37.867Z,290
2016-12-25T13:03:37.994Z,290
2016-12-25T13:04:38.094Z,290
2016-12-25T13:05:38.225Z,289
2016-12-25T13:06:38.380Z,289
2016-12-25T13:07:38.545Z,290
2016-12-25T13:08:38.639Z,290
2016-12-25T13:09:38.794Z,290
2016-12-25T13:10:38.916Z,290
2016-12-25T13:11:39.027Z,290
2016-12-25T13:12:39.194Z,290
2016-12-25T13:13:39.322Z,290
2016-12-25T13:14:39.445Z,290
2016-12-25T13:15:39.589Z,290
2016-12-25T13:16:39.732Z,290
2016-12-25T13:17:39.940Z,290
2016-12-25T13:18:40.056Z,290
2016-12-25T13:19:40.188Z,290
2016-12-25T13:20:40.342Z,290
2016-12-25T13:21:40.542Z,290
2016-12-25T13:22:40.620Z,290
2016-12-25T13:23:40.737Z,290
2016-12-25T13:24:40.852Z,290
2016-12-25T13:25:40.964Z,290
2016-12-25T13:26:41.092Z,289
2016-12-25T13:27:41.277Z,289
2016-12-25T13:28:41.348Z,290
2016-12-25T13:29:41.497Z,290
2016-12-25T13:30:41.615Z,290
2016-12-25T13:31:41.704Z,290
2016-12-25T13:32:41.872Z,289
2016-12-25T13:33:41.964Z,290
2016-12-25T13:34:42.133Z,290
2016-12-25T13:35:42.298Z,290
2016-12-25T13:36:42.459Z,290
2016-12-25T13:37:42.626Z,290
2016-12-25T13:38:42.728Z,290
2016-12-25T13:39:42.849Z,290
2016-12-25T13:40:42.956Z,290
2016-12-25T13:41:43.066Z,290
2016-12-25T13:42:43.243Z,290
2016-12-25T13:43:43.426Z,289
2016-12-25T13:44:43.544Z,290
2016-12-25T13:45:43.643Z,290
2016-12-25T13:46:43.774Z,290
2016-12-25T13:47:43.934Z,289
2016-12-25T13:48:46.857Z,290